Winburne, PA (16879)

11:14 AM EST on December 10, 2016 (GMT -0500)
Winburne | | Change Station

Elev 1457 ft 40.96 °N, 78.14 °W | Updated 1 second ago

Overcast
Overcast
25.7 °F
Feels Like 26 °F
N
0.0
Wind Variable Wind from West

Today
High -- | Low -- °F
--% Chance of Precip.
Yesterday
High -- | Low -- °F
Precip. -- in
Pressure 30.44 in
Visibility 4.0 miles
Clouds Mostly Cloudy 2400 ft
Overcast 2900 ft
Windchill 26 °F
Dew Point 17 °F
Humidity 71%
Rainfall 0.00 in
Snow Depth Not available.
7:26 AM 4:44 PM
Waxing Gibbous, 84% visible
METAR KFIG 101554Z AUTO 24008KT 4SM -SN BKN024 OVC029 M04/M08 A3037 RMK AO2 SLP307 P0000 T10391078
Pressure 30.44 in
Visibility 4.0 miles
Clouds Mostly Cloudy 2400 ft
Overcast 2900 ft
Windchill 26 °F
Dew Point 17 °F
Humidity 71%
Rainfall 0.00 in
Snow Depth Not available.
7:26 AM 4:44 PM
Waxing Gibbous, 84% visible
METAR KFIG 101554Z AUTO 24008KT 4SM -SN BKN024 OVC029 M04/M08 A3037 RMK AO2 SLP307 P0000 T10391078

10-Day Weather Forecast

Almanac

Astronomy

Dec. 10, 2016 Rise Set
Actual Time
Civil Twilight
Nautical Twilight
Astronomical Twilight
Moon
Length of Visible Light
Length of Day
Tomorrow will be .
, % of the Moon is Illuminated

Today's Extremes

State Highs State Lows

Community

WunderPhotos

Upload Photos

1,956,569 photos uploaded!

WunderBlog® & News

Nearby

Air Quality

  Air Quality AQ Index Pollutant
Not available.

Snow Depth

Station Depth Elevation

Earthquake Activity

City Distance Mag. Time & Date
Minimum magnitude displayed is 2.5.

Coastal Water Temperatures

Place Temperature

Stations

Nearby Weather Stations

Station Location Temp. Windchill Dew Point Humidity Wind Precip. Elev Updated Type
                   

Watches & Warnings

There are currently no watches in effect.